sensor_id;sensor_type;location;lat;lon;timestamp;pressure;altitude;pressure_sealevel;temperature;humidity
69173;BME280;56280;49.662;8.408;2023-01-31T00:01:09;101667.66;;;4.63;79.85
69173;BME280;56280;49.662;8.408;2023-01-31T00:03:35;101626.91;;;4.50;79.51
69173;BME280;56280;49.662;8.408;2023-01-31T00:08:38;101671.31;;;4.59;80.31
69173;BME280;56280;49.662;8.408;2023-01-31T00:11:04;101620.22;;;4.41;79.66
69173;BME280;56280;49.662;8.408;2023-01-31T00:13:29;101659.97;;;4.57;79.84
69173;BME280;56280;49.662;8.408;2023-01-31T00:15:58;101657.72;;;4.48;80.20
69173;BME280;56280;49.662;8.408;2023-01-31T00:18:23;101677.72;;;4.75;79.71
69173;BME280;56280;49.662;8.408;2023-01-31T00:20:52;101668.59;;;4.62;79.92
69173;BME280;56280;49.662;8.408;2023-01-31T00:23:17;101596.59;;;4.16;79.92
69173;BME280;56280;49.662;8.408;2023-01-31T00:25:43;101677.78;;;4.98;78.97
69173;BME280;56280;49.662;8.408;2023-01-31T00:28:08;101565.59;;;4.48;78.01
69173;BME280;56280;49.662;8.408;2023-01-31T00:30:34;101664.41;;;5.02;78.34
69173;BME280;56280;49.662;8.408;2023-01-31T00:32:59;101683.66;;;5.04;77.41
69173;BME280;56280;49.662;8.408;2023-01-31T00:35:25;101660.31;;;4.95;77.73
69173;BME280;56280;49.662;8.408;2023-01-31T00:37:50;101671.38;;;5.27;76.96
69173;BME280;56280;49.662;8.408;2023-01-31T00:40:15;101675.09;;;4.99;77.53
69173;BME280;56280;49.662;8.408;2023-01-31T00:42:41;101645.00;;;4.59;78.30
69173;BME280;56280;49.662;8.408;2023-01-31T00:45:08;101649.13;;;4.66;78.85
69173;BME280;56280;49.662;8.408;2023-01-31T00:47:33;101613.16;;;4.65;77.77
69173;BME280;56280;49.662;8.408;2023-01-31T00:49:59;101637.22;;;4.56;77.86
69173;BME280;56280;49.662;8.408;2023-01-31T00:52:24;101655.19;;;4.45;79.21
69173;BME280;56280;49.662;8.408;2023-01-31T00:54:50;101632.19;;;4.50;77.95
69173;BME280;56280;49.662;8.408;2023-01-31T00:57:15;101665.31;;;4.79;77.96
69173;BME280;56280;49.662;8.408;2023-01-31T00:59:40;101669.41;;;4.39;79.16
69173;BME280;56280;49.662;8.408;2023-01-31T01:02:05;101641.72;;;4.29;79.50
69173;BME280;56280;49.662;8.408;2023-01-31T01:04:31;101646.47;;;4.43;78.66
69173;BME280;56280;49.662;8.408;2023-01-31T01:06:56;101649.09;;;4.43;78.21
69173;BME280;56280;49.662;8.408;2023-01-31T01:09:21;101667.34;;;4.47;78.74
69173;BME280;56280;49.662;8.408;2023-01-31T01:11:47;101629.06;;;4.15;79.30
69173;BME280;56280;49.662;8.408;2023-01-31T01:14:12;101675.31;;;4.46;78.89
69173;BME280;56280;49.662;8.408;2023-01-31T01:16:38;101658.47;;;4.26;78.77
69173;BME280;56280;49.662;8.408;2023-01-31T01:19:08;101641.84;;;4.00;79.53
69173;BME280;56280;49.662;8.408;2023-01-31T01:21:34;101657.72;;;3.97;80.36
69173;BME280;56280;49.662;8.408;2023-01-31T01:24:04;101685.75;;;4.24;79.38
69173;BME280;56280;49.662;8.408;2023-01-31T01:26:30;101664.41;;;4.31;79.20
69173;BME280;56280;49.662;8.408;2023-01-31T01:28:57;101684.50;;;4.09;79.33
69173;BME280;56280;49.662;8.408;2023-01-31T01:31:23;101673.03;;;4.11;79.69
69173;BME280;56280;49.662;8.408;2023-01-31T01:33:57;101648.25;;;3.93;79.35
69173;BME280;56280;49.662;8.408;2023-01-31T01:36:23;101692.69;;;3.74;80.69
69173;BME280;56280;49.662;8.408;2023-01-31T01:38:50;101666.50;;;3.71;81.13
69173;BME280;56280;49.662;8.408;2023-01-31T01:41:16;101689.13;;;3.77;81.37
69173;BME280;56280;49.662;8.408;2023-01-31T01:43:51;101693.91;;;4.16;79.45
69173;BME280;56280;49.662;8.408;2023-01-31T01:46:27;101691.38;;;4.13;79.35
69173;BME280;56280;49.662;8.408;2023-01-31T01:48:58;101682.25;;;3.98;79.65
69173;BME280;56280;49.662;8.408;2023-01-31T01:51:26;101692.41;;;3.83;80.34
69173;BME280;56280;49.662;8.408;2023-01-31T01:53:54;101695.88;;;3.84;80.74
69173;BME280;56280;49.662;8.408;2023-01-31T01:56:34;101655.13;;;3.44;81.19
69173;BME280;56280;49.662;8.408;2023-01-31T01:59:42;101673.38;;;3.49;81.21
69173;BME280;56280;49.662;8.408;2023-01-31T02:02:00;101688.81;;;3.59;81.03
69173;BME280;56280;49.662;8.408;2023-01-31T02:04:31;101668.47;;;3.64;79.85
69173;BME280;56280;49.662;8.408;2023-01-31T02:06:58;101672.50;;;3.75;79.35
69173;BME280;56280;49.662;8.408;2023-01-31T02:09:38;101697.09;;;3.74;80.42
69173;BME280;56280;49.662;8.408;2023-01-31T02:12:08;101686.28;;;4.08;78.14
69173;BME280;56280;49.662;8.408;2023-01-31T02:14:34;101675.63;;;3.86;78.75
69173;BME280;56280;49.662;8.408;2023-01-31T02:16:59;101689.72;;;4.10;78.23
69173;BME280;56280;49.662;8.408;2023-01-31T02:19:37;101693.78;;;3.94;77.76
69173;BME280;56280;49.662;8.408;2023-01-31T02:22:41;101702.53;;;3.94;78.37
69173;BME280;56280;49.662;8.408;2023-01-31T02:31:29;101664.75;;;3.45;78.14
69173;BME280;56280;49.662;8.408;2023-01-31T02:34:05;101707.09;;;3.62;78.28
69173;BME280;56280;49.662;8.408;2023-01-31T02:36:51;101697.56;;;3.87;77.81
69173;BME280;56280;49.662;8.408;2023-01-31T02:42:46;101704.88;;;3.77;78.05
69173;BME280;56280;49.662;8.408;2023-01-31T02:46:07;101707.69;;;3.44;79.69
69173;BME280;56280;49.662;8.408;2023-01-31T02:48:19;101625.38;;;3.17;78.79
69173;BME280;56280;49.662;8.408;2023-01-31T02:53:37;101664.75;;;3.45;78.32
69173;BME280;56280;49.662;8.408;2023-01-31T02:56:16;101684.53;;;3.55;78.19
69173;BME280;56280;49.662;8.408;2023-01-31T02:58:52;101683.97;;;3.45;78.88
69173;BME280;56280;49.662;8.408;2023-01-31T03:01:25;101659.59;;;3.14;79.33
69173;BME280;56280;49.662;8.408;2023-01-31T03:03:56;101667.56;;;2.82;80.06
69173;BME280;56280;49.662;8.408;2023-01-31T03:11:26;101666.38;;;2.63;81.42
69173;BME280;56280;49.662;8.408;2023-01-31T03:14:16;101709.16;;;2.95;81.28
69173;BME280;56280;49.662;8.408;2023-01-31T03:16:58;101686.03;;;3.07;80.34
69173;BME280;56280;49.662;8.408;2023-01-31T03:19:57;101692.78;;;3.16;79.37
69173;BME280;56280;49.662;8.408;2023-01-31T03:22:28;101708.38;;;3.49;79.03
69173;BME280;56280;49.662;8.408;2023-01-31T03:24:55;101689.19;;;3.19;78.98
69173;BME280;56280;49.662;8.408;2023-01-31T03:27:21;101689.09;;;3.22;79.17
69173;BME280;56280;49.662;8.408;2023-01-31T03:29:48;101680.66;;;3.40;77.64
69173;BME280;56280;49.662;8.408;2023-01-31T03:32:17;101719.56;;;3.56;77.99
69173;BME280;56280;49.662;8.408;2023-01-31T03:34:44;101693.69;;;3.43;77.32
69173;BME280;56280;49.662;8.408;2023-01-31T03:37:20;101721.84;;;3.40;77.96
69173;BME280;56280;49.662;8.408;2023-01-31T03:40:16;101736.38;;;3.50;77.63
69173;BME280;56280;49.662;8.408;2023-01-31T03:42:58;101734.38;;;3.58;77.54
69173;BME280;56280;49.662;8.408;2023-01-31T03:45:38;101735.91;;;3.65;77.00
69173;BME280;56280;49.662;8.408;2023-01-31T03:48:07;101708.06;;;3.32;77.26
69173;BME280;56280;49.662;8.408;2023-01-31T03:50:45;101714.00;;;3.38;77.06
69173;BME280;56280;49.662;8.408;2023-01-31T03:53:24;101739.91;;;3.49;77.23
69173;BME280;56280;49.662;8.408;2023-01-31T03:55:55;101730.16;;;3.54;76.63
69173;BME280;56280;49.662;8.408;2023-01-31T03:58:26;101742.69;;;3.44;76.91
69173;BME280;56280;49.662;8.408;2023-01-31T04:00:53;101739.47;;;3.35;77.49
69173;BME280;56280;49.662;8.408;2023-01-31T04:03:29;101727.50;;;3.54;76.68
69173;BME280;56280;49.662;8.408;2023-01-31T04:05:56;101722.81;;;3.36;76.79
69173;BME280;56280;49.662;8.408;2023-01-31T04:08:22;101737.16;;;3.25;77.65
69173;BME280;56280;49.662;8.408;2023-01-31T04:10:48;101732.94;;;3.20;79.16
69173;BME280;56280;49.662;8.408;2023-01-31T04:13:14;101731.56;;;3.08;78.54
69173;BME280;56280;49.662;8.408;2023-01-31T04:15:39;101711.75;;;2.96;78.47
69173;BME280;56280;49.662;8.408;2023-01-31T04:18:04;101749.28;;;3.29;78.00
69173;BME280;56280;49.662;8.408;2023-01-31T04:20:30;101719.28;;;3.08;78.25
69173;BME280;56280;49.662;8.408;2023-01-31T04:22:55;101753.25;;;3.43;77.82
69173;BME280;56280;49.662;8.408;2023-01-31T04:25:20;101725.50;;;3.34;77.68
69173;BME280;56280;49.662;8.408;2023-01-31T04:27:46;101742.69;;;3.16;78.70
69173;BME280;56280;49.662;8.408;2023-01-31T04:30:11;101731.28;;;3.17;78.60
69173;BME280;56280;49.662;8.408;2023-01-31T04:32:37;101719.88;;;2.88;79.04
69173;BME280;56280;49.662;8.408;2023-01-31T04:35:03;101744.53;;;2.83;80.14
69173;BME280;56280;49.662;8.408;2023-01-31T04:37:28;101712.97;;;2.54;80.11
69173;BME280;56280;49.662;8.408;2023-01-31T04:39:53;101698.56;;;2.36;81.04
69173;BME280;56280;49.662;8.408;2023-01-31T04:42:19;101740.41;;;2.74;81.05
69173;BME280;56280;49.662;8.408;2023-01-31T04:44:44;101687.66;;;2.52;80.17
69173;BME280;56280;49.662;8.408;2023-01-31T04:47:09;101714.72;;;2.54;81.08
69173;BME280;56280;49.662;8.408;2023-01-31T04:49:35;101687.41;;;2.30;82.19
69173;BME280;56280;49.662;8.408;2023-01-31T04:52:00;101710.78;;;2.37;82.18
69173;BME280;56280;49.662;8.408;2023-01-31T04:54:25;101680.66;;;2.21;83.21
69173;BME280;56280;49.662;8.408;2023-01-31T04:56:50;101708.78;;;2.47;82.66
69173;BME280;56280;49.662;8.408;2023-01-31T04:59:16;101710.75;;;2.39;82.93
69173;BME280;56280;49.662;8.408;2023-01-31T05:01:41;101694.13;;;2.07;84.26
69173;BME280;56280;49.662;8.408;2023-01-31T05:04:07;101716.47;;;2.21;84.64
69173;BME280;56280;49.662;8.408;2023-01-31T05:06:32;101672.91;;;2.16;83.83
69173;BME280;56280;49.662;8.408;2023-01-31T05:08:57;101704.25;;;2.52;82.89
69173;BME280;56280;49.662;8.408;2023-01-31T05:11:26;101722.06;;;2.41;83.34
69173;BME280;56280;49.662;8.408;2023-01-31T05:13:51;101706.34;;;2.08;84.93
69173;BME280;56280;49.662;8.408;2023-01-31T05:16:17;101706.03;;;2.52;83.40
69173;BME280;56280;49.662;8.408;2023-01-31T05:18:42;101718.59;;;2.41;84.07
69173;BME280;56280;49.662;8.408;2023-01-31T05:21:07;101724.91;;;1.99;84.89
69173;BME280;56280;49.662;8.408;2023-01-31T05:23:33;101710.88;;;2.34;84.64
69173;BME280;56280;49.662;8.408;2023-01-31T05:25:58;101664.31;;;2.11;84.65
69173;BME280;56280;49.662;8.408;2023-01-31T05:28:24;101712.16;;;2.19;85.04
69173;BME280;56280;49.662;8.408;2023-01-31T05:30:51;101713.13;;;2.15;85.69
69173;BME280;56280;49.662;8.408;2023-01-31T05:33:17;101718.63;;;2.39;84.49
69173;BME280;56280;49.662;8.408;2023-01-31T05:35:47;101704.75;;;2.35;84.12
69173;BME280;56280;49.662;8.408;2023-01-31T05:38:13;101697.13;;;2.26;83.98
69173;BME280;56280;49.662;8.408;2023-01-31T05:40:38;101697.47;;;2.45;83.42
69173;BME280;56280;49.662;8.408;2023-01-31T05:43:03;101668.09;;;1.99;84.66
69173;BME280;56280;49.662;8.408;2023-01-31T05:45:29;101699.56;;;1.99;85.39
69173;BME280;56280;49.662;8.408;2023-01-31T05:47:55;101678.66;;;1.96;84.94
69173;BME280;56280;49.662;8.408;2023-01-31T05:50:21;101697.63;;;2.08;85.97
69173;BME280;56280;49.662;8.408;2023-01-31T05:52:54;101663.69;;;2.02;85.05
69173;BME280;56280;49.662;8.408;2023-01-31T05:55:20;101687.72;;;2.19;84.32
69173;BME280;56280;49.662;8.408;2023-01-31T05:57:45;101695.47;;;2.22;84.97
69173;BME280;56280;49.662;8.408;2023-01-31T06:00:11;101698.31;;;2.14;85.36
69173;BME280;56280;49.662;8.408;2023-01-31T06:02:38;101653.94;;;2.07;84.58
69173;BME280;56280;49.662;8.408;2023-01-31T06:05:03;101696.75;;;2.40;84.91
69173;BME280;56280;49.662;8.408;2023-01-31T06:07:29;101717.13;;;2.62;84.01
69173;BME280;56280;49.662;8.408;2023-01-31T06:09:54;101703.56;;;2.46;84.19
69173;BME280;56280;49.662;8.408;2023-01-31T06:12:19;101714.53;;;2.60;84.07
69173;BME280;56280;49.662;8.408;2023-01-31T06:14:44;101694.44;;;2.59;84.35
69173;BME280;56280;49.662;8.408;2023-01-31T06:17:11;101710.03;;;2.65;84.54
69173;BME280;56280;49.662;8.408;2023-01-31T06:19:36;101703.13;;;2.30;85.23
69173;BME280;56280;49.662;8.408;2023-01-31T06:22:03;101705.56;;;2.69;85.07
69173;BME280;56280;49.662;8.408;2023-01-31T06:24:28;101701.47;;;2.59;85.17
69173;BME280;56280;49.662;8.408;2023-01-31T06:26:54;101713.53;;;2.66;84.89
69173;BME280;56280;49.662;8.408;2023-01-31T06:29:19;101656.31;;;2.47;85.04
69173;BME280;56280;49.662;8.408;2023-01-31T06:31:44;101664.47;;;2.68;84.21
69173;BME280;56280;49.662;8.408;2023-01-31T06:34:10;101660.38;;;2.28;85.39
69173;BME280;56280;49.662;8.408;2023-01-31T06:36:35;101699.84;;;2.84;84.17
69173;BME280;56280;49.662;8.408;2023-01-31T06:39:01;101713.28;;;2.73;84.17
69173;BME280;56280;49.662;8.408;2023-01-31T06:41:28;101664.53;;;2.35;85.43
69173;BME280;56280;49.662;8.408;2023-01-31T06:43:53;101710.44;;;2.81;85.30
69173;BME280;56280;49.662;8.408;2023-01-31T06:46:18;101685.72;;;2.59;84.14
69173;BME280;56280;49.662;8.408;2023-01-31T06:48:44;101701.03;;;2.74;84.37
69173;BME280;56280;49.662;8.408;2023-01-31T06:51:09;101680.34;;;2.63;84.40
69173;BME280;56280;49.662;8.408;2023-01-31T06:53:34;101714.72;;;2.85;84.53
69173;BME280;56280;49.662;8.408;2023-01-31T06:56:00;101723.47;;;2.84;84.85
69173;BME280;56280;49.662;8.408;2023-01-31T06:58:25;101694.03;;;2.43;85.03
69173;BME280;56280;49.662;8.408;2023-01-31T07:00:51;101712.28;;;2.46;85.13
69173;BME280;56280;49.662;8.408;2023-01-31T07:03:16;101732.91;;;2.60;84.72
69173;BME280;56280;49.662;8.408;2023-01-31T07:05:44;101740.94;;;2.54;85.58
69173;BME280;56280;49.662;8.408;2023-01-31T07:08:09;101721.28;;;2.37;85.57
69173;BME280;56280;49.662;8.408;2023-01-31T07:10:34;101743.47;;;2.57;85.29
69173;BME280;56280;49.662;8.408;2023-01-31T07:13:00;101724.69;;;2.41;84.84
69173;BME280;56280;49.662;8.408;2023-01-31T07:15:26;101746.00;;;2.62;84.31
69173;BME280;56280;49.662;8.408;2023-01-31T07:17:56;101658.31;;;1.73;84.69
69173;BME280;56280;49.662;8.408;2023-01-31T07:20:22;101739.06;;;2.26;85.08
69173;BME280;56280;49.662;8.408;2023-01-31T07:22:53;101747.84;;;1.91;87.13
69173;BME280;56280;49.662;8.408;2023-01-31T07:25:18;101778.25;;;2.32;85.90
69173;BME280;56280;49.662;8.408;2023-01-31T07:27:44;101768.31;;;2.45;84.63
69173;BME280;56280;49.662;8.408;2023-01-31T07:30:09;101777.69;;;2.19;86.03
69173;BME280;56280;49.662;8.408;2023-01-31T07:32:35;101776.53;;;1.97;87.07
69173;BME280;56280;49.662;8.408;2023-01-31T07:35:00;101761.47;;;2.05;86.32
69173;BME280;56280;49.662;8.408;2023-01-31T07:37:25;101767.84;;;2.29;85.45
69173;BME280;56280;49.662;8.408;2023-01-31T07:39:51;101766.75;;;2.36;85.13
69173;BME280;56280;49.662;8.408;2023-01-31T07:42:16;101768.25;;;2.12;84.86
69173;BME280;56280;49.662;8.408;2023-01-31T07:44:41;101760.31;;;2.15;84.45
69173;BME280;56280;49.662;8.408;2023-01-31T07:47:06;101778.03;;;2.06;85.76
69173;BME280;56280;49.662;8.408;2023-01-31T07:49:32;101777.69;;;2.19;85.49
69173;BME280;56280;49.662;8.408;2023-01-31T07:51:57;101753.28;;;2.17;84.51
69173;BME280;56280;49.662;8.408;2023-01-31T07:54:22;101769.59;;;2.29;84.91
69173;BME280;56280;49.662;8.408;2023-01-31T07:56:47;101780.41;;;2.16;85.26
69173;BME280;56280;49.662;8.408;2023-01-31T07:59:13;101770.56;;;2.58;83.35
69173;BME280;56280;49.662;8.408;2023-01-31T08:01:38;101803.03;;;2.55;82.87
69173;BME280;56280;49.662;8.408;2023-01-31T08:04:22;101781.44;;;2.44;83.85
69173;BME280;56280;49.662;8.408;2023-01-31T08:06:48;101808.69;;;2.38;83.19
69173;BME280;56280;49.662;8.408;2023-01-31T08:09:14;101792.31;;;2.28;84.93
69173;BME280;56280;49.662;8.408;2023-01-31T08:11:40;101751.91;;;2.37;83.79
69173;BME280;56280;49.662;8.408;2023-01-31T08:14:05;101775.75;;;2.61;82.77
69173;BME280;56280;49.662;8.408;2023-01-31T08:16:32;101755.94;;;2.49;83.90
69173;BME280;56280;49.662;8.408;2023-01-31T08:18:58;101781.00;;;2.92;82.73
69173;BME280;56280;49.662;8.408;2023-01-31T08:21:23;101765.31;;;3.20;81.71
69173;BME280;56280;49.662;8.408;2023-01-31T08:23:48;101784.34;;;3.28;80.48
69173;BME280;56280;49.662;8.408;2023-01-31T08:26:19;101766.41;;;3.13;81.03
69173;BME280;56280;49.662;8.408;2023-01-31T08:28:46;101790.44;;;3.29;81.37
69173;BME280;56280;49.662;8.408;2023-01-31T08:31:14;101780.00;;;3.56;79.36
69173;BME280;56280;49.662;8.408;2023-01-31T08:33:39;101787.38;;;3.15;80.95
69173;BME280;56280;49.662;8.408;2023-01-31T08:36:22;101789.31;;;3.38;80.66
69173;BME280;56280;49.662;8.408;2023-01-31T08:38:48;101787.59;;;3.37;79.78
69173;BME280;56280;49.662;8.408;2023-01-31T08:41:15;101796.88;;;3.49;81.12
69173;BME280;56280;49.662;8.408;2023-01-31T08:43:42;101793.97;;;3.28;80.44
69173;BME280;56280;49.662;8.408;2023-01-31T08:46:07;101772.09;;;3.27;80.54
69173;BME280;56280;49.662;8.408;2023-01-31T08:48:34;101782.56;;;3.57;79.38
69173;BME280;56280;49.662;8.408;2023-01-31T08:51:01;101781.16;;;3.75;78.94
69173;BME280;56280;49.662;8.408;2023-01-31T08:53:26;101766.56;;;3.65;78.76
69173;BME280;56280;49.662;8.408;2023-01-31T08:55:51;101759.06;;;3.54;79.53
69173;BME280;56280;49.662;8.408;2023-01-31T08:58:21;101784.72;;;3.73;79.70
69173;BME280;56280;49.662;8.408;2023-01-31T09:00:46;101789.81;;;3.79;78.91
69173;BME280;56280;49.662;8.408;2023-01-31T09:03:14;101814.63;;;3.97;79.06
69173;BME280;56280;49.662;8.408;2023-01-31T09:05:41;101789.72;;;3.82;78.88
69173;BME280;56280;49.662;8.408;2023-01-31T09:08:06;101797.63;;;3.80;79.97
69173;BME280;56280;49.662;8.408;2023-01-31T09:10:31;101781.97;;;3.77;79.51
69173;BME280;56280;49.662;8.408;2023-01-31T09:12:58;101765.81;;;3.90;80.29
69173;BME280;56280;49.662;8.408;2023-01-31T09:15:23;101779.50;;;3.99;79.15
69173;BME280;56280;49.662;8.408;2023-01-31T09:17:49;101806.22;;;4.14;79.88
69173;BME280;56280;49.662;8.408;2023-01-31T09:20:14;101762.94;;;4.23;78.51
69173;BME280;56280;49.662;8.408;2023-01-31T09:22:39;101757.63;;;3.97;79.16
69173;BME280;56280;49.662;8.408;2023-01-31T09:25:05;101733.25;;;3.67;80.74
69173;BME280;56280;49.662;8.408;2023-01-31T09:27:31;101735.59;;;3.75;80.29
69173;BME280;56280;49.662;8.408;2023-01-31T09:29:56;101758.72;;;3.63;82.26
69173;BME280;56280;49.662;8.408;2023-01-31T09:32:21;101770.19;;;3.89;82.52
69173;BME280;56280;49.662;8.408;2023-01-31T09:34:47;101751.81;;;3.61;83.14
69173;BME280;56280;49.662;8.408;2023-01-31T09:37:15;101763.97;;;3.92;82.99
69173;BME280;56280;49.662;8.408;2023-01-31T09:39:40;101753.75;;;3.82;82.86
69173;BME280;56280;49.662;8.408;2023-01-31T09:42:21;101738.22;;;4.01;82.20
69173;BME280;56280;49.662;8.408;2023-01-31T09:45:02;101756.34;;;4.11;82.49
69173;BME280;56280;49.662;8.408;2023-01-31T09:47:45;101732.22;;;4.23;81.60
69173;BME280;56280;49.662;8.408;2023-01-31T09:50:21;101743.19;;;4.11;81.46
69173;BME280;56280;49.662;8.408;2023-01-31T09:52:50;101735.69;;;4.25;81.35
69173;BME280;56280;49.662;8.408;2023-01-31T09:55:29;101769.34;;;4.41;81.10
69173;BME280;56280;49.662;8.408;2023-01-31T09:58:15;101759.97;;;4.33;80.39
69173;BME280;56280;49.662;8.408;2023-01-31T10:03:56;101775.19;;;5.21;78.26
69173;BME280;56280;49.662;8.408;2023-01-31T10:06:49;101773.78;;;5.36;76.84
69173;BME280;56280;49.662;8.408;2023-01-31T10:09:45;101766.81;;;4.88;78.41
69173;BME280;56280;49.662;8.408;2023-01-31T10:12:42;101752.09;;;5.28;77.25
69173;BME280;56280;49.662;8.408;2023-01-31T10:15:17;101745.81;;;5.08;77.14
69173;BME280;56280;49.662;8.408;2023-01-31T10:17:50;101723.06;;;4.84;78.35
69173;BME280;56280;49.662;8.408;2023-01-31T10:20:31;101721.28;;;5.08;78.04
69173;BME280;56280;49.662;8.408;2023-01-31T10:26:02;101787.97;;;5.32;77.93
69173;BME280;56280;49.662;8.408;2023-01-31T10:28:36;101760.16;;;5.25;77.32
69173;BME280;56280;49.662;8.408;2023-01-31T10:32:25;101735.13;;;5.59;76.42
69173;BME280;56280;49.662;8.408;2023-01-31T10:34:23;101762.25;;;5.39;76.57
69173;BME280;56280;49.662;8.408;2023-01-31T10:37:00;101756.94;;;5.17;77.31
69173;BME280;56280;49.662;8.408;2023-01-31T10:39:36;101752.44;;;5.42;77.23
69173;BME280;56280;49.662;8.408;2023-01-31T10:42:16;101754.22;;;5.42;77.06
69173;BME280;56280;49.662;8.408;2023-01-31T10:44:57;101746.69;;;5.55;76.45
69173;BME280;56280;49.662;8.408;2023-01-31T10:47:31;101762.25;;;5.61;76.99
69173;BME280;56280;49.662;8.408;2023-01-31T10:49:57;101750.16;;;5.77;76.57
69173;BME280;56280;49.662;8.408;2023-01-31T10:57:48;101741.34;;;5.78;74.90
69173;BME280;56280;49.662;8.408;2023-01-31T11:00:18;101734.56;;;5.51;75.76
69173;BME280;56280;49.662;8.408;2023-01-31T11:02:44;101731.22;;;5.45;76.68
69173;BME280;56280;49.662;8.408;2023-01-31T11:05:15;101734.69;;;5.47;76.81
69173;BME280;56280;49.662;8.408;2023-01-31T11:07:42;101727.19;;;5.59;76.95
69173;BME280;56280;49.662;8.408;2023-01-31T11:10:28;101700.31;;;5.71;76.37
69173;BME280;56280;49.662;8.408;2023-01-31T11:12:59;101683.28;;;5.58;77.23
69173;BME280;56280;49.662;8.408;2023-01-31T11:15:27;101678.41;;;5.91;76.62
69173;BME280;56280;49.662;8.408;2023-01-31T11:17:57;101654.34;;;5.56;76.33
69173;BME280;56280;49.662;8.408;2023-01-31T11:20:27;101651.06;;;5.51;76.60
69173;BME280;56280;49.662;8.408;2023-01-31T11:22:54;101652.16;;;5.45;76.28
69173;BME280;56280;49.662;8.408;2023-01-31T11:25:22;101669.09;;;5.82;75.39
69173;BME280;56280;49.662;8.408;2023-01-31T11:27:53;101663.69;;;5.43;76.82
69173;BME280;56280;49.662;8.408;2023-01-31T11:30:22;101661.72;;;5.48;76.50
69173;BME280;56280;49.662;8.408;2023-01-31T11:32:49;101666.56;;;5.59;75.66
69173;BME280;56280;49.662;8.408;2023-01-31T11:37:52;101638.00;;;5.26;77.23
69173;BME280;56280;49.662;8.408;2023-01-31T11:40:26;101636.59;;;5.39;77.42
69173;BME280;56280;49.662;8.408;2023-01-31T11:42:58;101620.59;;;5.44;77.25
69173;BME280;56280;49.662;8.408;2023-01-31T11:45:29;101595.56;;;5.34;77.34
69173;BME280;56280;49.662;8.408;2023-01-31T11:47:58;101611.22;;;5.59;76.73
69173;BME280;56280;49.662;8.408;2023-01-31T11:50:31;101601.44;;;5.61;76.74
69173;BME280;56280;49.662;8.408;2023-01-31T11:53:02;101599.31;;;5.48;76.63
69173;BME280;56280;49.662;8.408;2023-01-31T11:55:35;101611.38;;;5.95;75.74
69173;BME280;56280;49.662;8.408;2023-01-31T11:58:02;101577.72;;;5.81;74.65
69173;BME280;56280;49.662;8.408;2023-01-31T12:00:31;101569.34;;;5.72;74.94
69173;BME280;56280;49.662;8.408;2023-01-31T12:03:01;101603.16;;;5.82;75.28
69173;BME280;56280;49.662;8.408;2023-01-31T12:07:59;101584.31;;;5.71;76.04
69173;BME280;56280;49.662;8.408;2023-01-31T12:10:26;101582.81;;;5.86;75.44
69173;BME280;56280;49.662;8.408;2023-01-31T12:12:53;101586.28;;;5.45;76.00
69173;BME280;56280;49.662;8.408;2023-01-31T12:15:22;101548.13;;;5.34;76.17
69173;BME280;56280;49.662;8.408;2023-01-31T12:17:49;101524.59;;;5.29;75.97
69173;BME280;56280;49.662;8.408;2023-01-31T12:20:20;101563.63;;;5.62;75.96
69173;BME280;56280;49.662;8.408;2023-01-31T12:26:03;101548.66;;;5.83;75.50
69173;BME280;56280;49.662;8.408;2023-01-31T12:29:18;101568.22;;;6.18;74.52
69173;BME280;56280;49.662;8.408;2023-01-31T12:32:24;101518.50;;;5.89;73.73
69173;BME280;56280;49.662;8.408;2023-01-31T12:40:49;101540.88;;;6.19;74.11
69173;BME280;56280;49.662;8.408;2023-01-31T12:43:29;101521.78;;;5.94;74.56
69173;BME280;56280;49.662;8.408;2023-01-31T12:51:25;101537.66;;;5.73;74.91
69173;BME280;56280;49.662;8.408;2023-01-31T12:54:09;101532.53;;;6.10;74.04
69173;BME280;56280;49.662;8.408;2023-01-31T12:56:42;101524.25;;;5.98;73.80
69173;BME280;56280;49.662;8.408;2023-01-31T12:59:25;101511.66;;;5.84;74.67
69173;BME280;56280;49.662;8.408;2023-01-31T13:02:08;101475.56;;;5.66;74.55
69173;BME280;56280;49.662;8.408;2023-01-31T13:04:51;101500.16;;;6.06;73.89
69173;BME280;56280;49.662;8.408;2023-01-31T13:07:59;101502.28;;;5.98;74.27
69173;BME280;56280;49.662;8.408;2023-01-31T13:10:35;101508.00;;;6.08;73.56
69173;BME280;56280;49.662;8.408;2023-01-31T13:13:03;101501.88;;;6.07;73.16
69173;BME280;56280;49.662;8.408;2023-01-31T13:15:50;101497.53;;;6.06;73.73
69173;BME280;56280;49.662;8.408;2023-01-31T13:18:16;101488.97;;;5.80;74.38
69173;BME280;56280;49.662;8.408;2023-01-31T13:21:09;101476.84;;;5.97;73.66
69173;BME280;56280;49.662;8.408;2023-01-31T13:23:42;101477.47;;;6.02;73.59
69173;BME280;56280;49.662;8.408;2023-01-31T13:26:21;101475.28;;;5.72;75.15
69173;BME280;56280;49.662;8.408;2023-01-31T13:29:12;101480.28;;;5.99;74.97
69173;BME280;56280;49.662;8.408;2023-01-31T13:31:44;101460.34;;;5.92;74.12
69173;BME280;56280;49.662;8.408;2023-01-31T13:34:21;101487.81;;;6.26;73.27
69173;BME280;56280;49.662;8.408;2023-01-31T13:36:51;101491.53;;;5.82;75.57
69173;BME280;56280;49.662;8.408;2023-01-31T13:39:29;101483.22;;;5.91;74.85
69173;BME280;56280;49.662;8.408;2023-01-31T13:41:57;101491.97;;;6.31;73.34
69173;BME280;56280;49.662;8.408;2023-01-31T13:44:22;101463.38;;;5.82;74.63
69173;BME280;56280;49.662;8.408;2023-01-31T13:49:24;101453.66;;;5.84;74.87
69173;BME280;56280;49.662;8.408;2023-01-31T13:51:55;101461.84;;;5.78;75.01
69173;BME280;56280;49.662;8.408;2023-01-31T13:54:36;101467.38;;;6.12;74.36
69173;BME280;56280;49.662;8.408;2023-01-31T13:57:04;101446.50;;;5.87;75.38
69173;BME280;56280;49.662;8.408;2023-01-31T13:59:32;101470.75;;;5.95;75.85
69173;BME280;56280;49.662;8.408;2023-01-31T14:02:00;101469.91;;;6.13;75.18
69173;BME280;56280;49.662;8.408;2023-01-31T14:04:35;101439.84;;;6.17;74.89
69173;BME280;56280;49.662;8.408;2023-01-31T14:09:34;101440.59;;;6.19;75.34
69173;BME280;56280;49.662;8.408;2023-01-31T14:17:04;101451.22;;;6.18;74.96